Time;durP1;ratioP1;P1;durP2;ratioP2;P2;SDS_P1;SDS_P2;PMS_P1;PMS_P2;Temp;Humidity;BMP_temperature;BMP_pressure;BME280_temperature;BME280_humidity;BME280_pressure;Samples;Min_cycle;Max_cycle;Signal;HPM_P1;HPM_P2
2022/08/16 00:00:13;;;;;;;;;;;;;;;19.49;60.88;98437.34;5167425;28;20027;-73
2022/08/16 00:03:09;;;;;;;;;;;;;;;19.64;59.97;98440.59;5151793;28;19949;-73
2022/08/16 00:06:02;;;;;;;;;;;;;;;19.69;59.77;98431.88;5152915;28;19944;-73
2022/08/16 00:08:52;;;;;;;;;;;;;;;19.76;59.99;98434.53;5173148;28;19928;-74
2022/08/16 00:11:43;;;;;;;;;;;;;;;19.62;60.27;98437.25;5177656;28;19930;-74
2022/08/16 00:14:33;;;;;;;;;;;;;;;19.53;60.38;98437.72;5172492;28;20414;-73
2022/08/16 00:17:24;;;;;;;;;;;;;;;19.27;61.15;98434.16;5180956;28;19932;-73
2022/08/16 00:20:14;;;;;;;;;;;;;;;19.38;60.57;98441.53;5162038;28;19968;-73
2022/08/16 00:23:06;;;;;;;;;;;;;;;19.33;61.00;98437.81;5176502;28;19921;-74
2022/08/16 00:25:56;;;;;;;;;;;;;;;19.40;60.19;98446.69;5180338;28;19928;-73
2022/08/16 00:29:06;;;;;;;;;;;;;;;19.45;60.16;98444.19;5181901;28;19927;-73
2022/08/16 00:31:57;;;;;;;;;;;;;;;19.12;59.98;98415.59;5166003;28;19928;-74
2022/08/16 00:34:49;;;;;;;;;;;;;;;19.23;60.87;98447.16;5169977;28;20422;-73
2022/08/16 00:37:44;;;;;;;;;;;;;;;19.42;60.44;98450.81;5169795;28;19946;-74
2022/08/16 00:40:48;;;;;;;;;;;;;;;19.25;61.26;98447.78;5159703;28;20029;-73
2022/08/16 00:43:39;;;;;;;;;;;;;;;19.20;61.62;98444.06;5168342;28;19922;-74
2022/08/16 00:46:35;;;;;;;;;;;;;;;19.32;61.70;98446.94;5158173;28;19929;-74
2022/08/16 00:49:25;;;;;;;;;;;;;;;19.35;61.37;98447.31;5185586;28;19932;-73
2022/08/16 00:52:16;;;;;;;;;;;;;;;19.40;61.41;98444.00;5165462;28;19922;-73
2022/08/16 00:55:23;;;;;;;;;;;;;;;19.38;61.15;98449.59;5179956;28;19921;-74
2022/08/16 00:58:15;;;;;;;;;;;;;;;19.28;61.32;98451.09;5168556;28;19921;-74
2022/08/16 01:01:06;;;;;;;;;;;;;;;19.16;62.13;98451.75;5169132;28;19995;-73
2022/08/16 01:03:58;;;;;;;;;;;;;;;19.35;61.54;98457.25;5168080;28;19928;-74
2022/08/16 01:06:49;;;;;;;;;;;;;;;19.54;61.03;98450.97;5170412;28;19952;-74
2022/08/16 01:09:50;;;;;;;;;;;;;;;19.57;61.05;98453.22;5169525;28;19940;-73
2022/08/16 01:12:41;;;;;;;;;;;;;;;19.64;61.10;98456.75;5180192;28;19932;-74
2022/08/16 01:15:32;;;;;;;;;;;;;;;19.82;60.58;98455.19;5182330;28;19928;-74
2022/08/16 01:18:25;;;;;;;;;;;;;;;19.74;60.97;98456.28;5171424;28;19952;-74
2022/08/16 01:21:51;;;;;;;;;;;;;;;19.85;60.49;98457.44;5154308;28;19928;-74
2022/08/16 01:24:44;;;;;;;;;;;;;;;19.94;60.65;98450.75;5158905;28;19964;-74
2022/08/16 01:27:46;;;;;;;;;;;;;;;19.82;60.72;98450.63;5168575;28;19947;-74
2022/08/16 01:30:39;;;;;;;;;;;;;;;19.67;61.33;98452.81;5164247;28;19928;-74
2022/08/16 01:33:39;;;;;;;;;;;;;;;19.86;60.60;98454.53;5168456;28;19945;-73
2022/08/16 01:36:34;;;;;;;;;;;;;;;19.95;60.75;98453.22;5162147;28;19948;-74
2022/08/16 01:39:24;;;;;;;;;;;;;;;19.91;60.10;98454.72;5150092;28;19932;-74
2022/08/16 01:42:15;;;;;;;;;;;;;;;19.93;60.50;98451.78;5150362;28;20380;-74
2022/08/16 01:45:05;;;;;;;;;;;;;;;19.77;60.84;98457.69;5157183;28;19922;-74
2022/08/16 01:47:55;;;;;;;;;;;;;;;19.54;60.90;98468.97;5180109;28;21488;-73
2022/08/16 01:50:48;;;;;;;;;;;;;;;19.43;60.97;98457.00;5160040;28;20521;-76
2022/08/16 01:53:58;;;;;;;;;;;;;;;19.39;61.16;98456.59;5167889;28;19929;-74
2022/08/16 01:56:52;;;;;;;;;;;;;;;19.46;61.53;98462.78;5160055;28;19948;-74
2022/08/16 01:59:43;;;;;;;;;;;;;;;19.39;60.88;98459.28;5149945;28;20475;-73
2022/08/16 02:02:37;;;;;;;;;;;;;;;19.22;61.50;98458.13;5167652;28;20481;-74
2022/08/16 02:05:31;;;;;;;;;;;;;;;19.24;61.46;98462.25;5168973;28;20020;-73
2022/08/16 02:08:25;;;;;;;;;;;;;;;19.09;61.36;98460.88;5154760;28;19928;-74
2022/08/16 02:11:24;;;;;;;;;;;;;;;18.76;62.61;98456.41;5155382;28;20008;-74
2022/08/16 02:14:15;;;;;;;;;;;;;;;18.72;62.65;98447.94;5149703;28;20042;-74
2022/08/16 02:17:08;;;;;;;;;;;;;;;18.73;62.63;98446.88;5175331;28;20055;-74
2022/08/16 02:19:58;;;;;;;;;;;;;;;18.65;62.45;98452.47;5166880;28;20330;-74
2022/08/16 02:22:50;;;;;;;;;;;;;;;18.81;61.76;98451.25;5167571;28;19928;-74
2022/08/16 02:25:40;;;;;;;;;;;;;;;18.82;61.44;98454.75;5168741;28;19922;-73
2022/08/16 02:28:41;;;;;;;;;;;;;;;18.77;62.11;98458.03;5177845;28;20023;-73
2022/08/16 02:31:36;;;;;;;;;;;;;;;18.71;62.26;98454.31;5162969;28;19929;-73
2022/08/16 02:34:46;;;;;;;;;;;;;;;18.23;63.81;98448.34;5151671;28;19929;-74
2022/08/16 02:37:37;;;;;;;;;;;;;;;18.21;63.96;98445.91;5153260;28;19929;-74
2022/08/16 02:40:40;;;;;;;;;;;;;;;18.47;62.78;98439.66;5160164;28;19944;-74
2022/08/16 02:43:32;;;;;;;;;;;;;;;18.42;62.89;98434.09;5148622;28;20384;-74
2022/08/16 02:46:26;;;;;;;;;;;;;;;18.45;62.74;98440.94;5147982;28;19952;-74
2022/08/16 02:49:19;;;;;;;;;;;;;;;18.40;62.71;98438.84;5160381;28;19928;-74
2022/08/16 02:52:10;;;;;;;;;;;;;;;18.48;62.78;98435.16;5152154;28;20399;-73
2022/08/16 02:55:06;;;;;;;;;;;;;;;18.53;62.26;98438.00;5167578;28;20662;-74
2022/08/16 02:57:58;;;;;;;;;;;;;;;18.35;62.96;98441.34;5159065;28;20304;-73
2022/08/16 03:00:49;;;;;;;;;;;;;;;18.46;63.37;98439.88;5156268;28;19928;-74
2022/08/16 03:03:39;;;;;;;;;;;;;;;18.20;63.90;98433.50;5158342;28;20293;-73
2022/08/16 03:06:50;;;;;;;;;;;;;;;18.29;64.21;98436.81;5149482;28;19928;-74
2022/08/16 03:09:44;;;;;;;;;;;;;;;18.23;63.75;98434.94;5167786;28;20055;-74
2022/08/16 03:12:40;;;;;;;;;;;;;;;18.04;64.43;98439.25;5163135;28;20015;-74
2022/08/16 03:15:45;;;;;;;;;;;;;;;18.04;64.68;98439.25;5158120;28;19933;-73
2022/08/16 03:18:35;;;;;;;;;;;;;;;18.20;63.77;98428.13;5157361;28;19929;-74
2022/08/16 03:21:31;;;;;;;;;;;;;;;18.14;64.03;98428.94;5155562;28;20399;-73
2022/08/16 03:24:28;;;;;;;;;;;;;;;17.95;64.45;98424.41;5168033;28;20307;-74
2022/08/16 03:27:20;;;;;;;;;;;;;;;18.13;64.25;98426.47;5171735;28;19921;-74
2022/08/16 03:30:13;;;;;;;;;;;;;;;18.08;64.44;98417.19;5167218;28;19928;-74
2022/08/16 03:33:07;;;;;;;;;;;;;;;18.02;64.31;98425.25;5162075;28;19929;-74
2022/08/16 03:36:05;;;;;;;;;;;;;;;17.87;64.26;98422.75;5147828;28;19999;-74
2022/08/16 03:39:20;;;;;;;;;;;;;;;17.94;64.80;98417.38;5162076;28;20032;-74
2022/08/16 03:42:11;;;;;;;;;;;;;;;18.03;64.86;98418.84;5160095;28;20634;-74
2022/08/16 03:45:02;;;;;;;;;;;;;;;17.71;65.08;98418.56;5166730;28;19971;-73
2022/08/16 03:47:56;;;;;;;;;;;;;;;17.80;64.59;98422.72;5167112;28;19921;-74
2022/08/16 03:50:47;;;;;;;;;;;;;;;17.76;64.89;98421.50;5150022;28;19921;-73
2022/08/16 03:53:49;;;;;;;;;;;;;;;17.46;64.69;98423.66;5157164;28;20137;-73
2022/08/16 03:56:46;;;;;;;;;;;;;;;17.44;65.06;98425.72;5180710;28;19932;-73
2022/08/16 03:59:46;;;;;;;;;;;;;;;17.44;65.44;98417.66;5154079;28;19983;-74
2022/08/16 04:02:37;;;;;;;;;;;;;;;17.52;65.20;98422.03;5180790;28;20587;-74
2022/08/16 04:05:30;;;;;;;;;;;;;;;17.48;65.56;98435.03;5147379;28;19929;-74
2022/08/16 04:08:20;;;;;;;;;;;;;;;17.67;65.04;98433.41;5176022;28;19925;-74
2022/08/16 04:11:14;;;;;;;;;;;;;;;17.69;65.79;98422.50;5151243;28;19949;-73
2022/08/16 04:14:05;;;;;;;;;;;;;;;17.73;64.75;98421.88;5163282;28;19976;-73
2022/08/16 04:17:16;;;;;;;;;;;;;;;17.73;65.35;98416.50;5169468;28;19928;-74
2022/08/16 04:20:08;;;;;;;;;;;;;;;17.73;65.39;98423.72;5165902;28;20398;-73
2022/08/16 04:23:13;;;;;;;;;;;;;;;17.62;65.60;98419.78;5153391;28;19928;-74
2022/08/16 04:26:05;;;;;;;;;;;;;;;17.63;65.32;98421.44;5162608;28;20331;-74
2022/08/16 04:29:00;;;;;;;;;;;;;;;17.58;66.09;98424.75;5154814;28;20078;-74
2022/08/16 04:32:03;;;;;;;;;;;;;;;17.65;65.62;98429.25;5170725;28;20391;-74
2022/08/16 04:34:56;;;;;;;;;;;;;;;17.62;65.63;98435.88;5153899;28;19984;-73
2022/08/16 04:37:47;;;;;;;;;;;;;;;17.52;66.08;98435.44;5154601;28;19922;-74
2022/08/16 04:40:50;;;;;;;;;;;;;;;17.58;65.23;98439.97;5141484;28;20108;-73
2022/08/16 04:43:41;;;;;;;;;;;;;;;17.67;65.45;98444.13;5150841;28;19933;-73
2022/08/16 04:46:33;;;;;;;;;;;;;;;17.87;65.44;98443.38;5165985;28;19947;-74
2022/08/16 04:49:45;;;;;;;;;;;;;;;17.98;65.54;98446.28;5160272;28;19928;-74
2022/08/16 04:52:37;;;;;;;;;;;;;;;18.01;65.43;98450.41;5167852;28;20454;-74
2022/08/16 04:55:29;;;;;;;;;;;;;;;18.15;65.42;98452.06;5170225;28;19968;-74
2022/08/16 04:58:21;;;;;;;;;;;;;;;18.37;64.83;98459.91;5152970;28;19922;-74
2022/08/16 05:01:27;;;;;;;;;;;;;;;18.57;64.30;98455.34;5175493;28;20556;-74
2022/08/16 05:04:37;;;;;;;;;;;;;;;18.56;64.27;98459.06;5178101;28;20387;-74
2022/08/16 05:07:27;;;;;;;;;;;;;;;18.66;64.83;98458.66;5163049;28;19929;-74
2022/08/16 05:10:24;;;;;;;;;;;;;;;18.95;64.23;98460.91;5169275;28;19932;-74
2022/08/16 05:13:16;;;;;;;;;;;;;;;18.93;64.60;98462.97;5163068;28;20310;-74
2022/08/16 05:16:10;;;;;;;;;;;;;;;19.05;64.46;98465.84;5173182;28;19967;-74
2022/08/16 05:19:10;;;;;;;;;;;;;;;19.24;63.53;98456.06;5168400;28;19921;-74
2022/08/16 05:22:09;;;;;;;;;;;;;;;19.42;63.69;98468.81;5168953;28;19940;-74
2022/08/16 05:25:11;;;;;;;;;;;;;;;19.67;62.42;98472.44;5167103;28;19944;-74
2022/08/16 05:28:05;;;;;;;;;;;;;;;19.57;62.61;98471.22;5169016;28;19933;-74
2022/08/16 05:30:55;;;;;;;;;;;;;;;19.77;62.22;98476.50;5170049;28;19927;-74
2022/08/16 05:33:50;;;;;;;;;;;;;;;19.95;61.95;98479.31;5154290;28;19991;-74
2022/08/16 05:36:43;;;;;;;;;;;;;;;19.98;61.98;98478.88;5156953;28;19928;-74
2022/08/16 05:39:33;;;;;;;;;;;;;;;20.04;61.95;98483.41;5156887;28;20016;-74
2022/08/16 05:42:26;;;;;;;;;;;;;;;20.06;61.29;98484.00;5168184;28;20098;-74
2022/08/16 05:45:24;;;;;;;;;;;;;;;20.27;61.03;98487.38;5176739;28;19986;-73
2022/08/16 05:48:20;;;;;;;;;;;;;;;20.29;61.20;98488.78;5161459;28;19945;-74
2022/08/16 05:51:20;;;;;;;;;;;;;;;20.40;60.65;98482.72;5164911;28;19928;-73
2022/08/16 05:54:25;;;;;;;;;;;;;;;20.42;60.92;98469.84;5155091;28;19929;-74
2022/08/16 05:57:20;;;;;;;;;;;;;;;20.62;60.13;98475.09;5163404;28;19921;-74
2022/08/16 06:00:13;;;;;;;;;;;;;;;20.69;59.85;98479.59;5179567;28;20003;-74
2022/08/16 06:03:15;;;;;;;;;;;;;;;20.90;59.48;98475.69;5167102;28;20149;-74
2022/08/16 06:06:18;;;;;;;;;;;;;;;21.05;58.44;98476.94;5166088;28;20008;-74
2022/08/16 06:09:17;;;;;;;;;;;;;;;20.99;59.20;98477.00;5165983;28;20019;-74
2022/08/16 06:12:08;;;;;;;;;;;;;;;21.20;58.00;98481.97;5160271;28;20558;-74
2022/08/16 06:15:01;;;;;;;;;;;;;;;21.28;57.88;98478.16;5165541;28;20031;-73
2022/08/16 06:17:54;;;;;;;;;;;;;;;21.20;58.55;98478.47;5161723;28;19922;-74
2022/08/16 06:20:47;;;;;;;;;;;;;;;21.34;58.20;98488.03;5149309;28;19922;-74
2022/08/16 06:23:45;;;;;;;;;;;;;;;21.30;58.22;98493.06;5162201;28;19932;-74
2022/08/16 06:26:36;;;;;;;;;;;;;;;21.43;58.27;98497.50;5163103;28;19936;-74
2022/08/16 06:29:29;;;;;;;;;;;;;;;21.46;57.81;98499.75;5160501;28;19932;-74
2022/08/16 06:32:20;;;;;;;;;;;;;;;21.47;57.83;98487.09;5169220;28;20048;-73
2022/08/16 06:35:16;;;;;;;;;;;;;;;21.56;57.57;98480.34;5159241;28;19937;-73
2022/08/16 06:38:09;;;;;;;;;;;;;;;21.68;57.59;98477.69;5159060;28;19929;-74
2022/08/16 06:41:20;;;;;;;;;;;;;;;21.99;57.27;98485.56;5148409;28;19945;-73
2022/08/16 06:44:11;;;;;;;;;;;;;;;22.16;56.62;98490.34;5159814;28;19976;-74
2022/08/16 06:47:11;;;;;;;;;;;;;;;22.49;54.64;98485.22;5163023;28;19941;-72
2022/08/16 06:50:02;;;;;;;;;;;;;;;22.34;55.06;98484.03;5173090;28;20288;-71
2022/08/16 06:53:00;;;;;;;;;;;;;;;22.51;55.06;98480.38;5161049;28;19929;-72
2022/08/16 06:56:02;;;;;;;;;;;;;;;22.38;55.38;98483.31;5161266;28;19992;-71
2022/08/16 06:59:04;;;;;;;;;;;;;;;22.57;55.73;98483.22;5161438;28;19928;-71
2022/08/16 07:02:04;;;;;;;;;;;;;;;22.84;54.17;98486.28;5161292;28;19937;-71
2022/08/16 07:04:54;;;;;;;;;;;;;;;22.58;54.51;98484.88;5155605;28;20399;-72
2022/08/16 07:07:47;;;;;;;;;;;;;;;22.74;55.03;98495.78;5159597;28;20395;-72
2022/08/16 07:10:40;;;;;;;;;;;;;;;22.58;55.38;98499.19;5173472;28;19929;-73
2022/08/16 07:13:31;;;;;;;;;;;;;;;23.21;53.49;98500.38;5161902;28;19972;-70
2022/08/16 07:16:42;;;;;;;;;;;;;;;23.15;53.29;98501.38;5160675;28;19937;-72
2022/08/16 07:19:32;;;;;;;;;;;;;;;23.45;52.22;98498.47;5172618;28;20306;-70
2022/08/16 07:22:47;;;;;;;;;;;;;;;23.54;52.95;98501.63;5177438;28;19955;-69
2022/08/16 07:25:46;;;;;;;;;;;;;;;23.67;52.31;98501.34;5144296;28;20083;-71
2022/08/16 07:28:36;;;;;;;;;;;;;;;24.02;51.02;98492.28;5172317;28;19952;-71
2022/08/16 07:31:27;;;;;;;;;;;;;;;24.07;51.73;98495.06;5156509;28;19944;-71
2022/08/16 07:34:27;;;;;;;;;;;;;;;24.68;49.50;98496.16;5176544;28;19936;-70
2022/08/16 07:37:25;;;;;;;;;;;;;;;24.81;48.71;98492.28;5158644;28;19936;-71
2022/08/16 07:40:36;;;;;;;;;;;;;;;25.15;48.52;98478.69;5157236;28;20308;-71
2022/08/16 07:43:46;;;;;;;;;;;;;;;25.86;47.39;98478.72;5192238;28;20059;-70
2022/08/16 07:46:37;;;;;;;;;;;;;;;26.92;44.81;98483.44;5178046;28;20459;-71
2022/08/16 07:49:55;;;;;;;;;;;;;;;27.97;42.89;98475.22;5182937;28;19932;-71
2022/08/16 07:52:48;;;;;;;;;;;;;;;28.71;41.91;98486.72;5176248;28;19928;-70
2022/08/16 07:55:41;;;;;;;;;;;;;;;28.99;40.29;98497.06;5177036;28;20346;-70
2022/08/16 07:58:35;;;;;;;;;;;;;;;29.65;39.06;98495.28;5190140;28;20067;-70
2022/08/16 08:01:37;;;;;;;;;;;;;;;29.88;39.48;98491.06;5181234;28;20341;-70
2022/08/16 08:04:31;;;;;;;;;;;;;;;30.26;37.52;98489.47;5179270;28;19929;-70
2022/08/16 08:07:22;;;;;;;;;;;;;;;30.17;38.72;98493.88;5177703;28;19928;-72
2022/08/16 08:10:16;;;;;;;;;;;;;;;30.75;37.22;98495.91;5170872;28;19945;-71
2022/08/16 08:13:18;;;;;;;;;;;;;;;31.18;36.40;98491.38;5183518;28;20563;-74
2022/08/16 08:16:09;;;;;;;;;;;;;;;30.63;36.48;98493.56;5195173;28;19921;-72
2022/08/16 08:19:00;;;;;;;;;;;;;;;30.43;37.53;98492.63;5179016;28;19921;-71
2022/08/16 08:21:53;;;;;;;;;;;;;;;31.28;35.54;98495.94;5181504;28;20544;-71
2022/08/16 08:25:10;;;;;;;;;;;;;;;31.70;34.60;98508.88;5196005;28;19932;-70
2022/08/16 08:28:03;;;;;;;;;;;;;;;31.79;35.00;98500.81;5176685;28;21066;-70
2022/08/16 08:30:53;;;;;;;;;;;;;;;32.06;34.25;98511.16;5195380;28;19929;-70
2022/08/16 08:33:55;;;;;;;;;;;;;;;32.43;33.38;98512.28;5181044;28;19967;-69
2022/08/16 08:36:47;;;;;;;;;;;;;;;32.34;33.69;98511.28;5178260;28;19988;-71
2022/08/16 08:39:48;;;;;;;;;;;;;;;32.43;33.14;98504.84;5169752;28;19965;-70
2022/08/16 08:42:44;;;;;;;;;;;;;;;32.98;32.54;98509.69;5171386;28;19921;-70
2022/08/16 08:45:42;;;;;;;;;;;;;;;32.41;33.57;98503.47;5176419;28;19932;-70
2022/08/16 08:48:37;;;;;;;;;;;;;;;33.11;32.06;98514.38;5173779;28;20120;-70
2022/08/16 08:51:34;;;;;;;;;;;;;;;33.03;33.50;98506.88;5171553;28;19929;-70
2022/08/16 08:54:26;;;;;;;;;;;;;;;33.19;32.28;98515.66;5173746;28;19926;-72
2022/08/16 08:57:17;;;;;;;;;;;;;;;33.83;32.08;98510.25;5177934;28;19922;-71
2022/08/16 09:00:18;;;;;;;;;;;;;;;33.91;31.23;98520.53;5175131;28;20024;-72
2022/08/16 09:03:12;;;;;;;;;;;;;;;32.93;32.74;98524.31;5184956;28;20603;-72
2022/08/16 09:06:04;;;;;;;;;;;;;;;32.77;32.44;98528.44;5182189;28;20028;-73
2022/08/16 09:08:58;;;;;;;;;;;;;;;32.04;33.17;98519.66;5161770;28;19968;-73
2022/08/16 09:11:50;;;;;;;;;;;;;;;31.50;34.01;98525.56;5173103;28;19933;-73
2022/08/16 09:14:44;;;;;;;;;;;;;;;30.92;34.87;98520.13;5176968;28;19980;-73
2022/08/16 09:17:42;;;;;;;;;;;;;;;30.78;35.02;98515.34;5178982;28;19925;-73
2022/08/16 09:20:45;;;;;;;;;;;;;;;30.22;36.72;98525.88;5177944;28;20048;-70
2022/08/16 09:23:47;;;;;;;;;;;;;;;30.29;36.13;98526.38;5194711;28;20395;-70
2022/08/16 09:26:39;;;;;;;;;;;;;;;30.84;36.22;98516.91;5181719;28;20394;-70
2022/08/16 09:29:35;;;;;;;;;;;;;;;31.47;34.35;98517.94;5181333;28;19921;-70
2022/08/16 09:32:35;;;;;;;;;;;;;;;31.18;34.64;98513.28;5177579;28;19963;-70
2022/08/16 09:35:26;;;;;;;;;;;;;;;29.78;36.14;98510.25;5176244;28;19937;-70
2022/08/16 09:38:16;;;;;;;;;;;;;;;29.54;37.21;98519.06;5173018;28;20291;-71
2022/08/16 09:41:20;;;;;;;;;;;;;;;28.45;38.95;98519.50;5178521;28;20067;-71
2022/08/16 09:44:10;;;;;;;;;;;;;;;27.86;40.61;98515.25;5181115;28;20792;-71
2022/08/16 09:47:21;;;;;;;;;;;;;;;28.08;40.46;98523.22;5174169;28;19922;-70
2022/08/16 09:50:13;;;;;;;;;;;;;;;27.68;40.83;98525.78;5170895;28;19987;-71
2022/08/16 09:53:04;;;;;;;;;;;;;;;27.08;42.05;98531.44;5171330;28;20296;-71
2022/08/16 09:55:55;;;;;;;;;;;;;;;27.37;42.00;98521.03;5187373;23;19928;-80
2022/08/16 09:58:45;;;;;;;;;;;;;;;27.23;42.19;98519.06;5179270;28;20572;-80
2022/08/16 10:01:55;;;;;;;;;;;;;;;27.87;41.01;98514.16;5170677;28;19922;-80
2022/08/16 10:04:45;;;;;;;;;;;;;;;28.24;40.41;98504.16;5164224;28;19969;-81
2022/08/16 10:07:45;;;;;;;;;;;;;;;29.94;38.11;98504.41;5166027;28;19929;-80
2022/08/16 10:10:40;;;;;;;;;;;;;;;31.05;34.73;98500.28;5163994;28;19928;-81
2022/08/16 10:13:32;;;;;;;;;;;;;;;31.02;35.00;98498.94;5156736;28;19928;-80
2022/08/16 10:16:22;;;;;;;;;;;;;;;30.12;35.40;98496.66;5165011;28;19979;-81
2022/08/16 10:19:12;;;;;;;;;;;;;;;30.17;36.25;98510.28;5171251;28;19940;-82
2022/08/16 10:22:03;;;;;;;;;;;;;;;30.29;35.89;98508.03;5167589;28;19929;-81
2022/08/16 10:24:54;;;;;;;;;;;;;;;29.10;37.22;98505.25;5161509;28;19928;-80
2022/08/16 10:27:49;;;;;;;;;;;;;;;29.26;36.94;98509.59;5161978;28;19929;-81
2022/08/16 10:30:46;;;;;;;;;;;;;;;28.59;38.05;98513.50;5162086;28;19921;-80
2022/08/16 10:33:36;;;;;;;;;;;;;;;29.17;36.78;98484.78;5169332;28;19929;-80
2022/08/16 10:36:29;;;;;;;;;;;;;;;29.65;35.72;98508.94;5178704;28;20515;-80
2022/08/16 10:39:28;;;;;;;;;;;;;;;29.82;36.41;98514.03;5169947;28;19933;-80
2022/08/16 10:42:30;;;;;;;;;;;;;;;30.07;34.84;98510.38;5175945;28;19922;-80
2022/08/16 10:45:20;;;;;;;;;;;;;;;29.47;36.27;98516.63;5158473;28;20000;-80
2022/08/16 10:48:11;;;;;;;;;;;;;;;29.78;36.07;98508.31;5168382;28;19929;-81
2022/08/16 10:51:16;;;;;;;;;;;;;;;30.81;35.23;98509.28;5165377;28;20490;-80
2022/08/16 10:54:07;;;;;;;;;;;;;;;31.64;33.97;98511.97;5173146;28;19928;-83
2022/08/16 10:57:17;;;;;;;;;;;;;;;31.89;33.23;98508.09;5167245;28;19976;-84
2022/08/16 11:00:11;;;;;;;;;;;;;;;32.56;32.53;98506.03;5166811;28;19929;-83
2022/08/16 11:03:10;;;;;;;;;;;;;;;32.58;32.20;98511.19;5160858;28;19932;-85
2022/08/16 11:06:21;;;;;;;;;;;;;;;32.74;31.09;98510.63;5168119;28;19944;-83
2022/08/16 11:09:17;;;;;;;;;;;;;;;31.48;33.99;98505.84;5166883;28;19922;-83
2022/08/16 11:12:14;;;;;;;;;;;;;;;31.55;33.80;98512.59;5165666;28;20433;-83
2022/08/16 11:15:05;;;;;;;;;;;;;;;31.46;33.27;98513.56;5159797;28;19976;-81
2022/08/16 11:18:07;;;;;;;;;;;;;;;31.52;33.57;98518.69;5156758;28;19929;-81
2022/08/16 11:21:19;;;;;;;;;;;;;;;31.41;33.32;98513.63;5163687;28;19922;-82
2022/08/16 11:24:18;;;;;;;;;;;;;;;31.37;32.28;98515.31;5148648;28;19988;-82
2022/08/16 11:27:28;;;;;;;;;;;;;;;30.91;34.67;98515.78;5169575;28;19929;-80
2022/08/16 11:32:21;;;;;;;5.90;4.20;;;;;;;29.60;35.35;98512.50;5313403;27;20355;-69
2022/08/16 11:35:23;;;;;;;7.28;4.60;;;;;;;29.37;35.77;98511.22;5261915;28;20128;-67
2022/08/16 11:38:33;;;;;;;8.80;5.07;;;;;;;30.43;35.33;98506.31;5259174;28;20060;-67
2022/08/16 11:41:43;;;;;;;6.00;4.30;;;;;;;30.30;33.97;98500.63;5265894;28;20512;-68
2022/08/16 11:44:40;;;;;;;5.95;4.45;;;;;;;30.19;36.18;98508.09;5264125;28;20048;-69
2022/08/16 11:47:46;;;;;;;7.50;4.63;;;;;;;30.74;34.35;98506.03;5261478;28;20135;-69
2022/08/16 11:50:36;;;;;;;9.05;4.55;;;;;;;30.69;34.96;98500.59;5265215;28;20045;-70
2022/08/16 11:53:28;;;;;;;6.88;4.00;;;;;;;30.76;33.79;98492.94;5266461;28;20063;-71
2022/08/16 11:56:25;;;;;;;7.88;4.18;;;;;;;30.60;34.95;98491.41;5264330;28;20093;-69
2022/08/16 11:59:37;;;;;;;7.25;4.80;;;;;;;30.52;33.39;98490.06;5256962;28;20675;-69
2022/08/16 12:02:29;;;;;;;;;;;;;;;30.67;34.22;98498.16;5279232;28;20048;-70
2022/08/16 12:05:24;;;;;;;9.63;4.10;;;;;;;30.27;34.07;98493.84;5262260;28;19943;-68
2022/08/16 12:08:20;;;;;;;10.45;4.65;;;;;;;30.02;34.84;98497.53;5258315;28;20048;-68
2022/08/16 12:11:15;;;;;;;10.00;4.57;;;;;;;30.27;34.29;98482.91;5245696;28;20137;-68
2022/08/16 12:14:08;;;;;;;6.32;3.65;;;;;;;29.53;34.31;98489.28;5244200;28;20063;-69
2022/08/16 12:17:03;;;;;;;10.23;4.25;;;;;;;29.54;35.23;98485.44;5258567;28;20178;-67
2022/08/16 12:19:54;;;;;;;8.60;4.10;;;;;;;29.88;34.52;98483.69;5260883;28;20060;-68
2022/08/16 12:22:46;;;;;;;5.63;4.10;;;;;;;30.28;34.00;98475.50;5265264;28;20105;-67
2022/08/16 12:25:38;;;;;;;6.50;4.25;;;;;;;30.49;33.29;98479.69;5264020;28;20066;-67
2022/08/16 12:28:28;;;;;;;7.82;4.43;;;;;;;29.61;34.63;98475.91;5256909;28;20050;-68
2022/08/16 12:31:38;;;;;;;6.20;4.00;;;;;;;29.68;34.28;98478.31;5255716;28;20082;-67
2022/08/16 12:34:49;;;;;;;6.80;4.20;;;;;;;29.84;35.19;98466.22;5258086;28;20425;-68
2022/08/16 12:37:43;;;;;;;;;;;;;;;30.34;34.49;98477.13;5261101;28;20667;-69
2022/08/16 12:40:38;;;;;;;6.85;3.97;;;;;;;30.31;33.18;98473.03;5263918;28;20404;-68
2022/08/16 12:43:31;;;;;;;6.65;3.90;;;;;;;30.06;33.61;98476.72;5250319;28;20067;-68
2022/08/16 12:46:22;;;;;;;5.15;3.97;;;;;;;29.99;33.83;98470.75;5246808;28;20051;-68
2022/08/16 12:49:12;;;;;;;6.07;4.00;;;;;;;30.48;32.97;98458.13;5260088;28;20146;-68
2022/08/16 12:52:03;;;;;;;6.22;4.10;;;;;;;30.40;33.05;98448.63;5245371;28;20165;-68
2022/08/16 12:54:56;;;;;;;6.28;4.22;;;;;;;30.29;33.43;98461.53;5245968;28;20075;-69
2022/08/16 12:57:46;;;;;;;6.00;3.85;;;;;;;30.29;33.49;98456.06;5227514;28;20052;-68
2022/08/16 13:00:48;;;;;;;4.88;3.45;;;;;;;30.99;33.19;98457.63;5248403;28;20048;-68
2022/08/16 13:03:39;;;;;;;4.07;3.58;;;;;;;30.60;33.51;98461.31;5247525;28;20133;-68
2022/08/16 13:06:30;;;;;;;5.88;3.30;;;;;;;30.75;32.80;98450.19;5245539;28;20106;-67
2022/08/16 13:09:24;;;;;;;6.75;3.83;;;;;;;30.39;32.60;98442.31;5246505;28;20627;-68
2022/08/16 13:12:22;;;;;;;5.80;4.18;;;;;;;29.75;33.35;98440.56;5241811;28;20079;-68
2022/08/16 13:15:16;;;;;;;7.05;4.00;;;;;;;30.06;33.70;98437.63;5245772;28;20048;-68
2022/08/16 13:18:07;;;;;;;;;;;;;;;30.43;33.48;98439.81;5217177;28;20087;-68
2022/08/16 13:21:13;;;;;;;5.65;3.50;;;;;;;30.17;33.95;98428.28;5244074;28;19927;-68
2022/08/16 13:24:04;;;;;;;5.35;3.78;;;;;;;30.52;32.97;98440.84;5245616;28;20525;-69
2022/08/16 13:26:55;;;;;;;8.82;3.97;;;;;;;30.46;32.39;98436.50;5245084;28;20055;-69
2022/08/16 13:29:45;;;;;;;8.85;3.85;;;;;;;30.50;32.70;98423.06;5249888;28;20040;-69
2022/08/16 13:32:47;;;;;;;4.32;3.40;;;;;;;30.68;32.67;98436.03;5243461;28;20059;-69
2022/08/16 13:35:43;;;;;;;5.97;3.70;;;;;;;30.15;32.85;98425.81;5251627;28;20714;-69
2022/08/16 13:38:35;;;;;;;;;;;;;;;30.31;32.52;98437.47;5231229;28;20494;-69
2022/08/16 13:41:27;;;;;;;9.50;4.05;;;;;;;30.41;33.37;98434.66;5232700;28;19924;-69
2022/08/16 13:44:19;;;;;;;6.70;3.65;;;;;;;30.58;33.29;98428.75;5250870;28;20052;-69
2022/08/16 13:47:10;;;;;;;4.78;3.88;;;;;;;30.93;31.35;98434.16;5252000;28;20052;-68
2022/08/16 13:50:02;;;;;;;5.93;3.60;;;;;;;30.43;32.46;98418.78;5245114;28;20052;-68
2022/08/16 13:52:52;;;;;;;5.43;3.20;;;;;;;30.71;31.64;98419.03;5244138;28;20502;-68
2022/08/16 13:55:43;;;;;;;5.97;3.75;;;;;;;30.37;32.26;98406.25;5233444;28;20075;-68
2022/08/16 13:58:46;;;;;;;4.75;3.33;;;;;;;30.38;31.70;98420.72;5244224;28;20214;-69
2022/08/16 14:01:45;;;;;;;3.92;3.22;;;;;;;30.26;32.19;98415.63;5242506;28;20048;-69
2022/08/16 14:04:45;;;;;;;4.63;3.25;;;;;;;30.23;33.86;98412.66;5245406;28;20059;-68
2022/08/16 14:07:51;;;;;;;4.97;3.53;;;;;;;30.38;32.92;98409.78;5248026;28;20056;-68
2022/08/16 14:10:42;;;;;;;4.22;3.63;;;;;;;30.57;32.26;98409.88;5252533;28;20509;-68
2022/08/16 14:13:33;;;;;;;4.15;3.50;;;;;;;30.05;32.69;98408.66;5239821;28;20106;-68
2022/08/16 14:16:24;;;;;;;6.75;3.33;;;;;;;29.88;32.94;98401.69;5224966;28;20136;-68
2022/08/16 14:19:23;;;;;;;7.90;3.88;;;;;;;30.02;33.28;98395.56;5259160;28;20052;-68
2022/08/16 14:22:19;;;;;;;4.85;3.10;;;;;;;30.21;32.33;98407.47;5255713;28;20059;-68
2022/08/16 14:25:26;;;;;;;5.10;3.58;;;;;;;30.48;31.57;98397.94;5230169;28;20181;-68
2022/08/16 14:28:18;;;;;;;5.72;3.17;;;;;;;30.37;31.89;98378.91;5216058;28;20079;-68
2022/08/16 14:31:12;;;;;;;4.70;3.17;;;;;;;30.46;32.36;98392.75;5245654;28;20048;-68
2022/08/16 14:34:04;;;;;;;4.15;3.45;;;;;;;30.53;32.68;98397.88;5244973;28;20045;-68
2022/08/16 14:37:04;;;;;;;7.05;3.50;;;;;;;30.62;32.88;98369.59;5243540;28;20067;-68
2022/08/16 14:39:54;;;;;;;7.28;3.55;;;;;;;30.85;31.88;98395.38;5238419;28;20052;-68
2022/08/16 14:42:45;;;;;;;4.25;3.33;;;;;;;30.91;31.97;98398.06;5244464;28;20525;-68
2022/08/16 14:45:37;;;;;;;6.88;3.63;;;;;;;30.76;32.00;98391.66;5247524;28;20047;-69
2022/08/16 14:48:28;;;;;;;4.95;3.22;;;;;;;30.82;31.77;98395.13;5261073;28;20055;-68
2022/08/16 14:51:19;;;;;;;5.50;3.05;;;;;;;30.63;32.66;98398.59;5241985;28;20484;-68
2022/08/16 14:54:12;;;;;;;4.93;3.40;;;;;;;30.74;31.73;98393.03;5248110;28;20052;-68